Marina Del Rey, California
Current Conditions -  °F | °C
As of 7:51 AM on Thursday 30 Oct 2014 (Local Time) from KSMO Reporting Station
Clear Clear  
Wind Chill: 61°   Ceiling: Unl
Heat Index: 61°   Visibility: 10mi
Dew Point: 53°   Wind: 5mph
Humidity: 75%   Direction: 60°ENE
Pressure: 29.98"   Gusts: NA
Location:  33.98°N, 118.45°W
Report Text: KSMO 301451Z 06004KT 10SM CLR 16/12 A2998 RMK AO2 SLP151 T01610117 53002
Loading
Personal Weather Stations






























Interactive Weather Map
Tropical Storm Tracking
New forecast layout! Learn more

10-Day Weather Forecast

Advertisements
Track Severe Weather on mobile